Sommer S — WDG3830 — position and weather

sailwx.info

Track history (hours):
 
Tides and Currents Weather Stations Pressure Air Temp Water Temp Dewpoint Dewpoint Depression Visibility Wind Speed Wind Dir Waves Ship Positions

Sommer S

Owner: Shaver Transportation Company, Portland, OR. More information available from US FCC via Universal Licensing System and Coast Guard Vessel Documentation Center.

Last reported at 2015-Apr-27 18:05 UTC. Time now 2015-Apr-28 02:08 UTC.
Position N 46°05' W 122°56'.

Length 25 m.

Type: Tug. MMSI: 367530080.

Date/timePositionNaut miles runAvg speedWind from/ knotsBaromVisibWave heightAir tempDewpointWater temp
2015-Apr-27 18:05N 46°05' W 122°56'0 0.0
2015-Apr-27 17:33N 46°05' W 122°56'0 0.0
2015-Apr-27 16:33N 46°05' W 122°56'0 0.0
2015-Apr-27 15:33N 46°05' W 122°56'0 0.0
2015-Apr-27 14:33N 46°05' W 122°56'0 0.5
2015-Apr-27 13:33N 46°06' W 122°56'2 1.5
2015-Apr-27 12:33N 46°07' W 122°58'1 1.4
2015-Apr-27 11:33N 46°06' W 122°56'0 0.0
2015-Apr-27 10:33N 46°06' W 122°56'0 0.0
2015-Apr-27 09:33N 46°06' W 122°56'0 0.0
2015-Apr-27 08:33N 46°06' W 122°56'0 0.0
2015-Apr-27 07:33N 46°06' W 122°56'0 0.0
2015-Apr-27 06:33N 46°06' W 122°56'0 0.0
2015-Apr-27 05:34N 46°06' W 122°56'0 0.0
2015-Apr-27 04:33N 46°06' W 122°56'0 0.0
2015-Apr-27 03:33N 46°06' W 122°56'0 0.0
2015-Apr-27 02:33N 46°06' W 122°56'0 0.0
2015-Apr-27 01:33N 46°06' W 122°56'0 0.0
2015-Apr-27 00:34N 46°06' W 122°56'0 0.0
2015-Apr-26 23:33N 46°06' W 122°56'0 0.0
2015-Apr-26 22:33N 46°06' W 122°56'1 0.6
2015-Apr-26 21:33N 46°06' W 122°57'1 1.2
2015-Apr-26 20:33N 46°05' W 122°56'0 0.0
2015-Apr-26 19:33N 46°05' W 122°56'9 9.0
2015-Apr-26 18:33N 45°58' W 122°49'1211.9
2015-Apr-26 17:33N 45°46' W 122°46'8 7.5
2015-Apr-26 16:33N 45°39' W 122°45'0 0.0
2015-Apr-26 15:33N 45°39' W 122°45'0 0.0
2015-Apr-26 14:33N 45°39' W 122°45'0 0.0
2015-Apr-26 13:33N 45°39' W 122°45'0 0.0
2015-Apr-26 12:33N 45°39' W 122°45'0 0.0
2015-Apr-26 11:33N 45°39' W 122°45'0 0.0
2015-Apr-26 10:34N 45°39' W 122°45'0 0.0
2015-Apr-26 09:33N 45°39' W 122°45'0 0.0
2015-Apr-26 08:33N 45°39' W 122°45'0 0.0
2015-Apr-26 07:32N 45°39' W 122°45'0 0.0
2015-Apr-26 06:33N 45°39' W 122°45'0 0.0
2015-Apr-26 05:33N 45°39' W 122°45'0 0.0
2015-Apr-26 04:33N 45°39' W 122°45'0 0.0
2015-Apr-26 03:33N 45°39' W 122°45'0 0.0
2015-Apr-26 02:33N 45°39' W 122°45'0 0.0
2015-Apr-26 01:33N 45°39' W 122°45'0 0.0
2015-Apr-26 00:33N 45°39' W 122°45'0 0.0
2015-Apr-25 23:33N 45°39' W 122°45'1 1.2
2015-Apr-25 22:33N 45°38' W 122°43'0 0.0
2015-Apr-25 21:33N 45°38' W 122°43'2 1.8
2015-Apr-25 20:33N 45°39' W 122°45'0 0.0
2015-Apr-25 19:33N 45°39' W 122°45'1 0.6
2015-Apr-25 18:33N 45°39' W 122°46'1 1.1
2015-Apr-25 17:33N 45°39' W 122°45'0 0.0
2015-Apr-25 16:33N 45°39' W 122°45'0 0.0
2015-Apr-25 15:33N 45°39' W 122°45'0 0.0
2015-Apr-25 14:33N 45°39' W 122°45'0 0.0
2015-Apr-25 13:33N 45°39' W 122°45'0 0.0
2015-Apr-25 12:33N 45°39' W 122°45'0 0.0
2015-Apr-25 11:33N 45°39' W 122°45'1 1.2
2015-Apr-25 10:33N 45°38' W 122°43'1 1.1
2015-Apr-25 09:33N 45°39' W 122°45'1 0.6
2015-Apr-25 08:33N 45°39' W 122°45'1 0.7
2015-Apr-25 07:33N 45°39' W 122°45'0 0.1
2015-Apr-25 06:33N 45°39' W 122°45'0 0.0
2015-Apr-25 05:33N 45°39' W 122°45'0 0.0
2015-Apr-25 04:33N 45°39' W 122°45'0 0.0
2015-Apr-25 03:33N 45°39' W 122°45'0 0.0
2015-Apr-25 02:33N 45°39' W 122°45'0 0.0
2015-Apr-25 01:33N 45°39' W 122°45'0 0.0
2015-Apr-25 00:33N 45°39' W 122°45'0 0.0
2015-Apr-24 23:33N 45°39' W 122°45'1 1.1
2015-Apr-24 22:33N 45°39' W 122°46'1 0.5
2015-Apr-24 21:33N 45°39' W 122°46'2 2.0
2015-Apr-24 20:33N 45°38' W 122°44'1 1.1
2015-Apr-24 19:33N 45°39' W 122°45'0 0.0
2015-Apr-24 18:34N 45°39' W 122°45'0 0.0
2015-Apr-24 17:33N 45°39' W 122°45'0 0.0
2015-Apr-24 16:33N 45°39' W 122°45'0 0.0
2015-Apr-24 15:33N 45°39' W 122°45'1 1.3
2015-Apr-24 14:33N 45°38' W 122°43'1 1.0
2015-Apr-24 13:33N 45°38' W 122°42'2 1.8
2015-Apr-24 12:33N 45°39' W 122°44'0 0.3
2015-Apr-24 11:33N 45°39' W 122°45'0 0.0
2015-Apr-24 10:33N 45°39' W 122°45'0 0.0
2015-Apr-24 09:33N 45°39' W 122°45'0 0.0
2015-Apr-24 08:33N 45°39' W 122°45'0 0.0
2015-Apr-24 07:33N 45°39' W 122°45'0 0.0
2015-Apr-24 06:33N 45°39' W 122°45'0 0.0
2015-Apr-24 05:33N 45°39' W 122°45'0 0.0
2015-Apr-24 04:33N 45°39' W 122°45'0 0.0
2015-Apr-24 03:33N 45°39' W 122°45'0 0.0
2015-Apr-24 02:33N 45°39' W 122°45'0 0.0
2015-Apr-24 01:33N 45°39' W 122°45'0 0.0
2015-Apr-24 00:33N 45°39' W 122°45'2 2.3
2015-Apr-23 23:33N 45°38' W 122°42'2 2.2
2015-Apr-23 22:32N 45°39' W 122°45'0 0.0
2015-Apr-23 21:33N 45°39' W 122°45'0 0.0
2015-Apr-23 20:34N 45°39' W 122°45'0 0.0
2015-Apr-23 19:33N 45°39' W 122°45'4 4.2
2015-Apr-23 18:33N 45°43' W 122°46'9 8.9
2015-Apr-23 17:33N 45°52' W 122°47'8 7.7
2015-Apr-23 16:33N 45°59' W 122°50'7 7.2
2015-Apr-23 15:34N 46°05' W 122°55'2 2.1
2015-Apr-23 14:33N 46°07' W 122°58'0 0.4
2015-Apr-23 13:33N 46°07' W 122°58'0 0.2
2015-Apr-23 12:33N 46°07' W 122°58'2 2.2
2015-Apr-23 11:33N 46°05' W 122°56'2 2.2
2015-Apr-23 10:34N 46°04' W 122°54'6 5.5
2015-Apr-23 09:33N 45°59' W 122°50'3 3.1
2015-Apr-23 08:33N 46°02' W 122°52'0 0.0
2015-Apr-23 07:20N 46°02' W 122°52'0 0.0
2015-Apr-23 06:33N 46°02' W 122°52'0 0.0
2015-Apr-23 05:33N 46°02' W 122°52'0 0.0
2015-Apr-23 04:33N 46°02' W 122°52'0 0.0
2015-Apr-23 03:33N 46°02' W 122°52'0 0.0
2015-Apr-23 02:33N 46°02' W 122°52'0 0.0
2015-Apr-23 01:33N 46°02' W 122°52'0 0.4
2015-Apr-23 00:34N 46°02' W 122°53'5 4.8
2015-Apr-22 23:33N 46°06' W 122°56'1 0.7
2015-Apr-22 22:33N 46°05' W 122°56'0 0.0
2015-Apr-22 21:34N 46°05' W 122°56'0 0.0
2015-Apr-22 20:33N 46°05' W 122°56'0 0.0
2015-Apr-22 19:33N 46°05' W 122°56'0 0.0
2015-Apr-22 18:33N 46°05' W 122°56'0 0.0
2015-Apr-22 17:34N 46°05' W 122°56'0 0.0
2015-Apr-22 16:33N 46°05' W 122°56'0 0.0
2015-Apr-22 15:33N 46°05' W 122°56'1 0.6
2015-Apr-22 14:33N 46°06' W 122°56'0 0.1
2015-Apr-22 13:33N 46°06' W 122°56'0 0.1
2015-Apr-22 12:33N 46°06' W 122°56'0 0.1
2015-Apr-22 11:33N 46°06' W 122°56'0 0.0
2015-Apr-22 10:34N 46°06' W 122°56'1 0.5
2015-Apr-22 09:33N 46°05' W 122°56'0 0.0
2015-Apr-22 08:33N 46°05' W 122°56'0 0.0
2015-Apr-22 07:33N 46°05' W 122°56'0 0.0
2015-Apr-22 06:33N 46°05' W 122°56'0 0.0
2015-Apr-22 05:33N 46°05' W 122°56'0 0.0
2015-Apr-22 04:33N 46°05' W 122°56'0 0.0
2015-Apr-22 03:33N 46°05' W 122°56'0 0.0
2015-Apr-22 02:33N 46°05' W 122°56'0 0.0
2015-Apr-22 01:32N 46°05' W 122°56'0 0.0
2015-Apr-22 00:33N 46°05' W 122°56'0 0.0
2015-Apr-21 23:33N 46°05' W 122°56'0 0.0
2015-Apr-21 22:33N 46°05' W 122°56'0 0.0
2015-Apr-21 21:33N 46°05' W 122°56'0 0.0
2015-Apr-21 20:33N 46°05' W 122°56'0 0.0
2015-Apr-21 19:33N 46°05' W 122°56'0 0.0
2015-Apr-21 18:33N 46°05' W 122°56'6 6.3
2015-Apr-21 17:33N 46°00' W 122°51'1 1.4
2015-Apr-21 16:33N 45°59' W 122°50'2 1.9
2015-Apr-21 15:33N 46°01' W 122°51'6 5.8
2015-Apr-21 14:33N 46°05' W 122°56'2 1.7
2015-Apr-21 13:34N 46°06' W 122°58'1 0.5
2015-Apr-21 12:33N 46°07' W 122°58'2 1.8
2015-Apr-21 11:33N 46°06' W 122°56'1111.4
2015-Apr-21 10:34N 45°56' W 122°48'1312.8
2015-Apr-21 09:33N 45°43' W 122°46'5 4.8
2015-Apr-21 08:33N 45°38' W 122°47'1 1.5
2015-Apr-21 07:33N 45°39' W 122°45'0 0.0
2015-Apr-21 06:33N 45°39' W 122°45'1 1.4
2015-Apr-21 05:33N 45°38' W 122°47'3 2.6
2015-Apr-21 04:33N 45°36' W 122°47'0 0.2
2015-Apr-21 03:33N 45°36' W 122°47'0 0.0
2015-Apr-21 02:33N 45°36' W 122°47'0 0.0
2015-Apr-21 01:33N 45°36' W 122°47'3 2.9
2015-Apr-21 00:33N 45°39' W 122°45'0 0.4
2015-Apr-20 23:33N 45°39' W 122°45'0 0.0
2015-Apr-20 22:33N 45°39' W 122°45'2 2.0
2015-Apr-20 21:33N 45°38' W 122°42'3 3.1
2015-Apr-20 20:33N 45°39' W 122°46'6 5.6
2015-Apr-20 19:33N 45°34' W 122°44'0 0.0
2015-Apr-20 18:33N 45°34' W 122°44'0 0.0
2015-Apr-20 17:33N 45°34' W 122°44'0 0.1
2015-Apr-20 16:33N 45°34' W 122°44'0 0.1
2015-Apr-20 15:33N 45°34' W 122°44'0 0.0
2015-Apr-20 14:33N 45°34' W 122°44'0 0.0
2015-Apr-20 13:33N 45°34' W 122°44'1 1.1
2015-Apr-20 12:33N 45°34' W 122°45'4 3.9
2015-Apr-20 11:33N 45°38' W 122°42'1 0.9
2015-Apr-20 10:33N 45°38' W 122°43'1 0.5
2015-Apr-20 09:33N 45°38' W 122°44'0 0.0
2015-Apr-20 08:33N 45°38' W 122°44'1 1.4
2015-Apr-20 07:33N 45°39' W 122°45'1 0.6
2015-Apr-20 06:33N 45°39' W 122°45'0 0.0
2015-Apr-20 05:33N 45°39' W 122°45'3 2.7
2015-Apr-20 04:33N 45°38' W 122°42'2 2.2
2015-Apr-20 03:33N 45°39' W 122°45'1110.8
2015-Apr-20 02:33N 45°50' W 122°48'10 9.8
2015-Apr-20 01:33N 45°59' W 122°50'0 0.2
2015-Apr-20 00:33N 45°59' W 122°50'8 7.7
2015-Apr-19 23:33N 46°05' W 122°56'0 0.1
2015-Apr-19 22:33N 46°05' W 122°56'0 0.0
2015-Apr-19 21:33N 46°05' W 122°56'0 0.0
2015-Apr-19 20:33N 46°05' W 122°56'0 0.0
2015-Apr-19 19:33N 46°05' W 122°56'0 0.0
2015-Apr-19 18:33N 46°05' W 122°56'0 0.0
2015-Apr-19 17:33N 46°05' W 122°56'0 0.0
2015-Apr-19 16:33N 46°05' W 122°56'0 0.0
2015-Apr-19 15:33N 46°05' W 122°56'0 0.4
2015-Apr-19 14:33N 46°05' W 122°55'0 0.0
2015-Apr-19 13:33N 46°05' W 122°55'0 0.0
2015-Apr-19 12:33N 46°05' W 122°55'0 0.0
2015-Apr-19 11:33N 46°05' W 122°55'0 0.0
2015-Apr-19 10:33N 46°05' W 122°55'0 0.0
2015-Apr-19 09:33N 46°05' W 122°55'0 0.0
2015-Apr-19 08:33N 46°05' W 122°55'0 0.0
2015-Apr-19 07:33N 46°05' W 122°55'0 0.0
2015-Apr-19 06:33N 46°05' W 122°55'2 1.5
2015-Apr-19 05:33N 46°06' W 122°57'1 0.6
2015-Apr-19 04:33N 46°06' W 122°56'1 0.6
2015-Apr-19 03:33N 46°05' W 122°56'0 0.0
2015-Apr-19 02:33N 46°05' W 122°56'4 4.2
2015-Apr-19 01:33N 46°02' W 122°53'10 9.9
2015-Apr-19 00:33N 45°53' W 122°48'9 9.4
2015-Apr-18 23:33N 45°43' W 122°46'5 4.8
2015-Apr-18 22:33N 45°39' W 122°45'1 1.1
2015-Apr-18 21:33N 45°38' W 122°43'1 0.5
2015-Apr-18 20:33N 45°38' W 122°44'0 0.0
2015-Apr-18 19:33N 45°38' W 122°44'1 0.5
2015-Apr-18 18:33N 45°38' W 122°44'1 0.8
2015-Apr-18 17:33N 45°39' W 122°45'0 0.0
2015-Apr-18 16:33N 45°39' W 122°45'0 0.0
2015-Apr-18 15:33N 45°39' W 122°45'0 0.0
2015-Apr-18 14:33N 45°39' W 122°45'1 0.7
2015-Apr-18 13:33N 45°38' W 122°44'0 0.2
2015-Apr-18 12:33N 45°38' W 122°44'0 0.0
2015-Apr-18 11:33N 45°38' W 122°44'2 1.6
2015-Apr-18 10:33N 45°38' W 122°42'1 1.1
2015-Apr-18 09:33N 45°38' W 122°44'0 0.0
2015-Apr-18 08:33N 45°38' W 122°44'0 0.0
2015-Apr-18 07:33N 45°38' W 122°44'0 0.0
2015-Apr-18 06:33N 45°38' W 122°44'1 1.2
2015-Apr-18 05:33N 45°38' W 122°42'1 1.2
2015-Apr-18 04:33N 45°38' W 122°44'0 0.0
2015-Apr-18 03:33N 45°38' W 122°44'1 0.9
2015-Apr-18 02:33N 45°39' W 122°45'1 0.7
2015-Apr-18 01:33N 45°38' W 122°44'1 0.9
2015-Apr-18 00:33N 45°39' W 122°45'1 1.0
2015-Apr-17 23:33N 45°38' W 122°44'0 0.0
2015-Apr-17 22:33N 45°38' W 122°44'0 0.0
2015-Apr-17 21:33N 45°38' W 122°44'0 0.0
2015-Apr-17 20:33N 45°38' W 122°44'1 1.4
2015-Apr-17 19:33N 45°38' W 122°42'1 1.3
2015-Apr-17 18:33N 45°38' W 122°44'  
Track history (hours):
 
Tides and Currents Weather Stations Pressure Air Temp Water Temp Dewpoint Dewpoint Depression Visibility Wind Speed Wind Dir Waves Ship Positions

Sommer S

Owner: Shaver Transportation Company, Portland, OR. More information available from US FCC via Universal Licensing System and Coast Guard Vessel Documentation Center.

Last reported at 2015-Apr-27 18:05 UTC. Time now 2015-Apr-28 02:08 UTC.
Position N 46°05' W 122°56'.

Length 25 m.

Type: Tug. MMSI: 367530080.

Date/timePositionNaut miles runAvg speedWind from/ knotsBaromVisibWave heightAir tempDewpointWater temp
2015-Apr-27 18:05N 46°05' W 122°56'0 0.0
2015-Apr-27 17:33N 46°05' W 122°56'0 0.0
2015-Apr-27 16:33N 46°05' W 122°56'0 0.0
2015-Apr-27 15:33N 46°05' W 122°56'0 0.0
2015-Apr-27 14:33N 46°05' W 122°56'0 0.5
2015-Apr-27 13:33N 46°06' W 122°56'2 1.5
2015-Apr-27 12:33N 46°07' W 122°58'1 1.4
2015-Apr-27 11:33N 46°06' W 122°56'0 0.0
2015-Apr-27 10:33N 46°06' W 122°56'0 0.0
2015-Apr-27 09:33N 46°06' W 122°56'0 0.0
2015-Apr-27 08:33N 46°06' W 122°56'0 0.0
2015-Apr-27 07:33N 46°06' W 122°56'0 0.0
2015-Apr-27 06:33N 46°06' W 122°56'0 0.0
2015-Apr-27 05:34N 46°06' W 122°56'0 0.0
2015-Apr-27 04:33N 46°06' W 122°56'0 0.0
2015-Apr-27 03:33N 46°06' W 122°56'0 0.0
2015-Apr-27 02:33N 46°06' W 122°56'0 0.0
2015-Apr-27 01:33N 46°06' W 122°56'0 0.0
2015-Apr-27 00:34N 46°06' W 122°56'0 0.0
2015-Apr-26 23:33N 46°06' W 122°56'0 0.0
2015-Apr-26 22:33N 46°06' W 122°56'1 0.6
2015-Apr-26 21:33N 46°06' W 122°57'1 1.2
2015-Apr-26 20:33N 46°05' W 122°56'0 0.0
2015-Apr-26 19:33N 46°05' W 122°56'9 9.0
2015-Apr-26 18:33N 45°58' W 122°49'1211.9
2015-Apr-26 17:33N 45°46' W 122°46'8 7.5
2015-Apr-26 16:33N 45°39' W 122°45'0 0.0
2015-Apr-26 15:33N 45°39' W 122°45'0 0.0
2015-Apr-26 14:33N 45°39' W 122°45'0 0.0
2015-Apr-26 13:33N 45°39' W 122°45'0 0.0
2015-Apr-26 12:33N 45°39' W 122°45'0 0.0
2015-Apr-26 11:33N 45°39' W 122°45'0 0.0
2015-Apr-26 10:34N 45°39' W 122°45'0 0.0
2015-Apr-26 09:33N 45°39' W 122°45'0 0.0
2015-Apr-26 08:33N 45°39' W 122°45'0 0.0
2015-Apr-26 07:32N 45°39' W 122°45'0 0.0
2015-Apr-26 06:33N 45°39' W 122°45'0 0.0
2015-Apr-26 05:33N 45°39' W 122°45'0 0.0
2015-Apr-26 04:33N 45°39' W 122°45'0 0.0
2015-Apr-26 03:33N 45°39' W 122°45'0 0.0
2015-Apr-26 02:33N 45°39' W 122°45'0 0.0
2015-Apr-26 01:33N 45°39' W 122°45'0 0.0
2015-Apr-26 00:33N 45°39' W 122°45'0 0.0
2015-Apr-25 23:33N 45°39' W 122°45'1 1.2
2015-Apr-25 22:33N 45°38' W 122°43'0 0.0
2015-Apr-25 21:33N 45°38' W 122°43'2 1.8
2015-Apr-25 20:33N 45°39' W 122°45'0 0.0
2015-Apr-25 19:33N 45°39' W 122°45'1 0.6
2015-Apr-25 18:33N 45°39' W 122°46'1 1.1
2015-Apr-25 17:33N 45°39' W 122°45'0 0.0
2015-Apr-25 16:33N 45°39' W 122°45'0 0.0
2015-Apr-25 15:33N 45°39' W 122°45'0 0.0
2015-Apr-25 14:33N 45°39' W 122°45'0 0.0
2015-Apr-25 13:33N 45°39' W 122°45'0 0.0
2015-Apr-25 12:33N 45°39' W 122°45'0 0.0
2015-Apr-25 11:33N 45°39' W 122°45'1 1.2
2015-Apr-25 10:33N 45°38' W 122°43'1 1.1
2015-Apr-25 09:33N 45°39' W 122°45'1 0.6
2015-Apr-25 08:33N 45°39' W 122°45'1 0.7
2015-Apr-25 07:33N 45°39' W 122°45'0 0.1
2015-Apr-25 06:33N 45°39' W 122°45'0 0.0
2015-Apr-25 05:33N 45°39' W 122°45'0 0.0
2015-Apr-25 04:33N 45°39' W 122°45'0 0.0
2015-Apr-25 03:33N 45°39' W 122°45'0 0.0
2015-Apr-25 02:33N 45°39' W 122°45'0 0.0
2015-Apr-25 01:33N 45°39' W 122°45'0 0.0
2015-Apr-25 00:33N 45°39' W 122°45'0 0.0
2015-Apr-24 23:33N 45°39' W 122°45'1 1.1
2015-Apr-24 22:33N 45°39' W 122°46'1 0.5
2015-Apr-24 21:33N 45°39' W 122°46'2 2.0
2015-Apr-24 20:33N 45°38' W 122°44'1 1.1
2015-Apr-24 19:33N 45°39' W 122°45'0 0.0
2015-Apr-24 18:34N 45°39' W 122°45'0 0.0
2015-Apr-24 17:33N 45°39' W 122°45'0 0.0
2015-Apr-24 16:33N 45°39' W 122°45'0 0.0
2015-Apr-24 15:33N 45°39' W 122°45'1 1.3
2015-Apr-24 14:33N 45°38' W 122°43'1 1.0
2015-Apr-24 13:33N 45°38' W 122°42'2 1.8
2015-Apr-24 12:33N 45°39' W 122°44'0 0.3
2015-Apr-24 11:33N 45°39' W 122°45'0 0.0
2015-Apr-24 10:33N 45°39' W 122°45'0 0.0
2015-Apr-24 09:33N 45°39' W 122°45'0 0.0
2015-Apr-24 08:33N 45°39' W 122°45'0 0.0
2015-Apr-24 07:33N 45°39' W 122°45'0 0.0
2015-Apr-24 06:33N 45°39' W 122°45'0 0.0
2015-Apr-24 05:33N 45°39' W 122°45'0 0.0
2015-Apr-24 04:33N 45°39' W 122°45'0 0.0
2015-Apr-24 03:33N 45°39' W 122°45'0 0.0
2015-Apr-24 02:33N 45°39' W 122°45'0 0.0
2015-Apr-24 01:33N 45°39' W 122°45'0 0.0
2015-Apr-24 00:33N 45°39' W 122°45'2 2.3
2015-Apr-23 23:33N 45°38' W 122°42'2 2.2
2015-Apr-23 22:32N 45°39' W 122°45'0 0.0
2015-Apr-23 21:33N 45°39' W 122°45'0 0.0
2015-Apr-23 20:34N 45°39' W 122°45'0 0.0
2015-Apr-23 19:33N 45°39' W 122°45'4 4.2
2015-Apr-23 18:33N 45°43' W 122°46'9 8.9
2015-Apr-23 17:33N 45°52' W 122°47'8 7.7
2015-Apr-23 16:33N 45°59' W 122°50'7 7.2
2015-Apr-23 15:34N 46°05' W 122°55'2 2.1
2015-Apr-23 14:33N 46°07' W 122°58'0 0.4
2015-Apr-23 13:33N 46°07' W 122°58'0 0.2
2015-Apr-23 12:33N 46°07' W 122°58'2 2.2
2015-Apr-23 11:33N 46°05' W 122°56'2 2.2
2015-Apr-23 10:34N 46°04' W 122°54'6 5.5
2015-Apr-23 09:33N 45°59' W 122°50'3 3.1
2015-Apr-23 08:33N 46°02' W 122°52'0 0.0
2015-Apr-23 07:20N 46°02' W 122°52'0 0.0
2015-Apr-23 06:33N 46°02' W 122°52'0 0.0
2015-Apr-23 05:33N 46°02' W 122°52'0 0.0
2015-Apr-23 04:33N 46°02' W 122°52'0 0.0
2015-Apr-23 03:33N 46°02' W 122°52'0 0.0
2015-Apr-23 02:33N 46°02' W 122°52'0 0.0
2015-Apr-23 01:33N 46°02' W 122°52'0 0.4
2015-Apr-23 00:34N 46°02' W 122°53'5 4.8
2015-Apr-22 23:33N 46°06' W 122°56'1 0.7
2015-Apr-22 22:33N 46°05' W 122°56'0 0.0
2015-Apr-22 21:34N 46°05' W 122°56'0 0.0
2015-Apr-22 20:33N 46°05' W 122°56'0 0.0
2015-Apr-22 19:33N 46°05' W 122°56'0 0.0
2015-Apr-22 18:33N 46°05' W 122°56'0 0.0
2015-Apr-22 17:34N 46°05' W 122°56'0 0.0
2015-Apr-22 16:33N 46°05' W 122°56'0 0.0
2015-Apr-22 15:33N 46°05' W 122°56'1 0.6
2015-Apr-22 14:33N 46°06' W 122°56'0 0.1
2015-Apr-22 13:33N 46°06' W 122°56'0 0.1
2015-Apr-22 12:33N 46°06' W 122°56'0 0.1
2015-Apr-22 11:33N 46°06' W 122°56'0 0.0
2015-Apr-22 10:34N 46°06' W 122°56'1 0.5
2015-Apr-22 09:33N 46°05' W 122°56'0 0.0
2015-Apr-22 08:33N 46°05' W 122°56'0 0.0
2015-Apr-22 07:33N 46°05' W 122°56'0 0.0
2015-Apr-22 06:33N 46°05' W 122°56'0 0.0
2015-Apr-22 05:33N 46°05' W 122°56'0 0.0
2015-Apr-22 04:33N 46°05' W 122°56'0 0.0
2015-Apr-22 03:33N 46°05' W 122°56'0 0.0
2015-Apr-22 02:33N 46°05' W 122°56'0 0.0
2015-Apr-22 01:32N 46°05' W 122°56'0 0.0
2015-Apr-22 00:33N 46°05' W 122°56'0 0.0
2015-Apr-21 23:33N 46°05' W 122°56'0 0.0
2015-Apr-21 22:33N 46°05' W 122°56'0 0.0
2015-Apr-21 21:33N 46°05' W 122°56'0 0.0
2015-Apr-21 20:33N 46°05' W 122°56'0 0.0
2015-Apr-21 19:33N 46°05' W 122°56'0 0.0
2015-Apr-21 18:33N 46°05' W 122°56'6 6.3
2015-Apr-21 17:33N 46°00' W 122°51'1 1.4
2015-Apr-21 16:33N 45°59' W 122°50'2 1.9
2015-Apr-21 15:33N 46°01' W 122°51'6 5.8
2015-Apr-21 14:33N 46°05' W 122°56'2 1.7
2015-Apr-21 13:34N 46°06' W 122°58'1 0.5
2015-Apr-21 12:33N 46°07' W 122°58'2 1.8
2015-Apr-21 11:33N 46°06' W 122°56'1111.4
2015-Apr-21 10:34N 45°56' W 122°48'1312.8
2015-Apr-21 09:33N 45°43' W 122°46'5 4.8
2015-Apr-21 08:33N 45°38' W 122°47'1 1.5
2015-Apr-21 07:33N 45°39' W 122°45'0 0.0
2015-Apr-21 06:33N 45°39' W 122°45'1 1.4
2015-Apr-21 05:33N 45°38' W 122°47'3 2.6
2015-Apr-21 04:33N 45°36' W 122°47'0 0.2
2015-Apr-21 03:33N 45°36' W 122°47'0 0.0
2015-Apr-21 02:33N 45°36' W 122°47'0 0.0
2015-Apr-21 01:33N 45°36' W 122°47'3 2.9
2015-Apr-21 00:33N 45°39' W 122°45'0 0.4
2015-Apr-20 23:33N 45°39' W 122°45'0 0.0
2015-Apr-20 22:33N 45°39' W 122°45'2 2.0
2015-Apr-20 21:33N 45°38' W 122°42'3 3.1
2015-Apr-20 20:33N 45°39' W 122°46'6 5.6
2015-Apr-20 19:33N 45°34' W 122°44'0 0.0
2015-Apr-20 18:33N 45°34' W 122°44'0 0.0
2015-Apr-20 17:33N 45°34' W 122°44'0 0.1
2015-Apr-20 16:33N 45°34' W 122°44'0 0.1
2015-Apr-20 15:33N 45°34' W 122°44'0 0.0
2015-Apr-20 14:33N 45°34' W 122°44'0 0.0
2015-Apr-20 13:33N 45°34' W 122°44'1 1.1
2015-Apr-20 12:33N 45°34' W 122°45'4 3.9
2015-Apr-20 11:33N 45°38' W 122°42'1 0.9
2015-Apr-20 10:33N 45°38' W 122°43'1 0.5
2015-Apr-20 09:33N 45°38' W 122°44'0 0.0
2015-Apr-20 08:33N 45°38' W 122°44'1 1.4
2015-Apr-20 07:33N 45°39' W 122°45'1 0.6
2015-Apr-20 06:33N 45°39' W 122°45'0 0.0
2015-Apr-20 05:33N 45°39' W 122°45'3 2.7
2015-Apr-20 04:33N 45°38' W 122°42'2 2.2
2015-Apr-20 03:33N 45°39' W 122°45'1110.8
2015-Apr-20 02:33N 45°50' W 122°48'10 9.8
2015-Apr-20 01:33N 45°59' W 122°50'0 0.2
2015-Apr-20 00:33N 45°59' W 122°50'8 7.7
2015-Apr-19 23:33N 46°05' W 122°56'0 0.1
2015-Apr-19 22:33N 46°05' W 122°56'0 0.0
2015-Apr-19 21:33N 46°05' W 122°56'0 0.0
2015-Apr-19 20:33N 46°05' W 122°56'0 0.0
2015-Apr-19 19:33N 46°05' W 122°56'0 0.0
2015-Apr-19 18:33N 46°05' W 122°56'0 0.0
2015-Apr-19 17:33N 46°05' W 122°56'0 0.0
2015-Apr-19 16:33N 46°05' W 122°56'0 0.0
2015-Apr-19 15:33N 46°05' W 122°56'0 0.4
2015-Apr-19 14:33N 46°05' W 122°55'0 0.0
2015-Apr-19 13:33N 46°05' W 122°55'0 0.0
2015-Apr-19 12:33N 46°05' W 122°55'0 0.0
2015-Apr-19 11:33N 46°05' W 122°55'0 0.0
2015-Apr-19 10:33N 46°05' W 122°55'0 0.0
2015-Apr-19 09:33N 46°05' W 122°55'0 0.0
2015-Apr-19 08:33N 46°05' W 122°55'0 0.0
2015-Apr-19 07:33N 46°05' W 122°55'0 0.0
2015-Apr-19 06:33N 46°05' W 122°55'2 1.5
2015-Apr-19 05:33N 46°06' W 122°57'1 0.6
2015-Apr-19 04:33N 46°06' W 122°56'1 0.6
2015-Apr-19 03:33N 46°05' W 122°56'0 0.0
2015-Apr-19 02:33N 46°05' W 122°56'4 4.2
2015-Apr-19 01:33N 46°02' W 122°53'10 9.9
2015-Apr-19 00:33N 45°53' W 122°48'9 9.4
2015-Apr-18 23:33N 45°43' W 122°46'5 4.8
2015-Apr-18 22:33N 45°39' W 122°45'1 1.1
2015-Apr-18 21:33N 45°38' W 122°43'1 0.5
2015-Apr-18 20:33N 45°38' W 122°44'0 0.0
2015-Apr-18 19:33N 45°38' W 122°44'1 0.5
2015-Apr-18 18:33N 45°38' W 122°44'1 0.8
2015-Apr-18 17:33N 45°39' W 122°45'0 0.0
2015-Apr-18 16:33N 45°39' W 122°45'0 0.0
2015-Apr-18 15:33N 45°39' W 122°45'0 0.0
2015-Apr-18 14:33N 45°39' W 122°45'1 0.7
2015-Apr-18 13:33N 45°38' W 122°44'0 0.2
2015-Apr-18 12:33N 45°38' W 122°44'0 0.0
2015-Apr-18 11:33N 45°38' W 122°44'2 1.6
2015-Apr-18 10:33N 45°38' W 122°42'1 1.1
2015-Apr-18 09:33N 45°38' W 122°44'0 0.0
2015-Apr-18 08:33N 45°38' W 122°44'0 0.0
2015-Apr-18 07:33N 45°38' W 122°44'0 0.0
2015-Apr-18 06:33N 45°38' W 122°44'1 1.2
2015-Apr-18 05:33N 45°38' W 122°42'1 1.2
2015-Apr-18 04:33N 45°38' W 122°44'0 0.0
2015-Apr-18 03:33N 45°38' W 122°44'1 0.9
2015-Apr-18 02:33N 45°39' W 122°45'1 0.7
2015-Apr-18 01:33N 45°38' W 122°44'1 0.9
2015-Apr-18 00:33N 45°39' W 122°45'1 1.0
2015-Apr-17 23:33N 45°38' W 122°44'0 0.0
2015-Apr-17 22:33N 45°38' W 122°44'0 0.0
2015-Apr-17 21:33N 45°38' W 122°44'0 0.0
2015-Apr-17 20:33N 45°38' W 122°44'1 1.4
2015-Apr-17 19:33N 45°38' W 122°42'1 1.3
2015-Apr-17 18:33N 45°38' W 122°44'  

Dump ship's entire track history